Airfield :
LOGIN :

Register | Disclaimer

   EN    FR    IT 

 










Legend :    VFR   Marginal VFR   IFR   Intensive IFR   Very Intensive IFR
Visi :
Ceiling :
>= 8 km
>= 3000ft
5 to 8 km
1000 to 3000 ft
1500m to 5 km
500 to 1000 ft
800 to 1500m
200 to 500 ft
< 800m
< 200 ft
Symbols :   Thunderstorms  Fog  Heavy snow  Heavy precipitations  Wind > 20 kt
SIGMETs :     Misc.  Thunderstorms  Icing  Turbulence  Mountain Waves  Volcanic Ashes







- Airport Elevation : 1090 ft
- IATA code : CFE
- Download approach charts


LFLC - Clermont-Ferrand Auvergne

CURRENT METAR :
  • 171200Z AUTO 17019KT CAVOK 18/M06 Q1022 BECMG 20015G25KT

EXPIRED METARs :
  • 171130Z AUTO 18020KT CAVOK 18/M06 Q1022 BECMG 20015G25KT
  • 171100Z AUTO 18019KT CAVOK 17/M07 Q1022 BECMG 20015G25KT
  • 171030Z AUTO 19017KT CAVOK 16/M06 Q1023 BECMG 20015G25KT
  • 171000Z AUTO 20014KT 170V240 CAVOK 14/M05 Q1023 BECMG 20015G25KT
  • 170930Z AUTO 20014KT CAVOK 12/M06 Q1023 BECMG 20015G25KT

TAF TAF LFLC
Valid from the 17 at 09:00 until the 18 at 09:00 UTC


170800Z 1709/1809 20015G25KT CAVOK
BECMG 1718/1721 18010KT
TEMPO 1803/1809 18015G25KT
ATIS : +33 4 73 62 74 38
No reported NOTAMs for that airfield.



MET'MAP, your aeronautical weather chart ! - Copyright ORBIFLY December 2007 - Disclaimer

ORBIFLY MET'MAP TEAM :

Programming & Development : Alexandra Zaïnal
Concept & Development : Baudouin d'Aumeries
Co-Development & Prog : Marc-Olivier Méhu
Technical & hardware support : Manuel Goepfert

Contact : metmap@orbifly.com




SOURCES & CREDITS :

   NOAA